Time;durP1;ratioP1;P1;durP2;ratioP2;P2;SDS_P1;SDS_P2;PMS_P1;PMS_P2;Temp;Humidity;BMP_temperature;BMP_pressure;BME280_temperature;BME280_humidity;BME280_pressure;Samples;Min_cycle;Max_cycle;Signal;HPM_P1;HPM_P2
2021/04/24 00:01:12;;;;;;;10.60;6.20;;;4.80;99.90;;;;;;5012499;28;20502;-72
2021/04/24 00:03:37;;;;;;;9.40;5.20;;;4.70;99.90;;;;;;5012565;28;20024;-72
2021/04/24 00:06:03;;;;;;;7.60;4.75;;;4.90;99.90;;;;;;5017992;28;20025;-72
2021/04/24 00:08:29;;;;;;;10.25;5.63;;;4.80;99.90;;;;;;5011377;28;20112;-73
2021/04/24 00:10:55;;;;;;;8.60;5.70;;;4.60;99.90;;;;;;5011237;28;20543;-74
2021/04/24 00:13:21;;;;;;;7.82;5.30;;;4.50;99.90;;;;;;5011246;28;20423;-72
2021/04/24 00:15:46;;;;;;;8.35;5.75;;;4.40;99.90;;;;;;5011072;28;20022;-73
2021/04/24 00:18:13;;;;;;;6.18;5.05;;;4.20;99.90;;;;;;5004374;28;20026;-73
2021/04/24 00:20:39;;;;;;;8.07;5.68;;;4.30;99.90;;;;;;5011235;28;20026;-72
2021/04/24 00:23:05;;;;;;;9.77;5.60;;;4.40;99.90;;;;;;5004108;28;20097;-72
2021/04/24 00:25:31;;;;;;;8.02;5.63;;;4.40;99.90;;;;;;5006425;28;20056;-72
2021/04/24 00:27:56;;;;;;;7.90;5.57;;;4.60;99.90;;;;;;4997697;28;20054;-71
2021/04/24 00:30:23;;;;;;;8.05;5.30;;;4.60;99.90;;;;;;5009706;28;20033;-72
2021/04/24 00:32:50;;;;;;;9.05;5.22;;;4.50;99.90;;;;;;5011011;28;20018;-71
2021/04/24 00:35:17;;;;;;;8.90;5.15;;;4.40;99.90;;;;;;5011965;28;20018;-73
2021/04/24 00:37:43;;;;;;;10.25;5.78;;;4.30;99.90;;;;;;5012046;28;20388;-72
2021/04/24 00:40:10;;;;;;;8.13;5.65;;;4.50;99.90;;;;;;5012153;28;20033;-73
2021/04/24 00:42:36;;;;;;;8.65;5.85;;;4.60;99.90;;;;;;5011921;28;20033;-73
2021/04/24 00:45:06;;;;;;;8.55;5.95;;;4.80;99.90;;;;;;5011893;28;20105;-73
2021/04/24 00:47:32;;;;;;;13.65;6.75;;;4.90;99.90;;;;;;5002826;28;20022;-73
2021/04/24 00:49:57;;;;;;;9.70;5.85;;;4.80;99.90;;;;;;5010834;28;20022;-72
2021/04/24 00:52:23;;;;;;;12.77;5.60;;;4.90;99.90;;;;;;5003496;28;20514;-73
2021/04/24 00:54:48;;;;;;;8.65;5.57;;;5.00;99.90;;;;;;5010471;28;20026;-73
2021/04/24 00:57:15;;;;;;;8.07;5.40;;;5.00;99.90;;;;;;5010632;28;20109;-72
2021/04/24 00:59:41;;;;;;;12.82;5.55;;;5.10;99.90;;;;;;5011975;28;20113;-73
2021/04/24 01:02:08;;;;;;;10.40;5.75;;;5.20;99.90;;;;;;5003664;28;20089;-73
2021/04/24 01:04:35;;;;;;;8.27;5.75;;;5.20;99.90;;;;;;5011692;28;20591;-73
2021/04/24 01:07:03;;;;;;;11.63;6.15;;;4.70;99.90;;;;;;5011623;28;20468;-73
2021/04/24 01:09:29;;;;;;;9.45;6.05;;;4.50;99.90;;;;;;5011764;28;20022;-72
2021/04/24 01:11:54;;;;;;;8.02;5.78;;;4.40;99.90;;;;;;5011779;28;20014;-73
2021/04/24 01:14:20;;;;;;;8.60;5.50;;;4.50;99.90;;;;;;5011519;28;20105;-73
2021/04/24 01:16:46;;;;;;;7.68;5.85;;;4.60;99.90;;;;;;5010559;28;20022;-73
2021/04/24 01:19:13;;;;;;;8.90;5.25;;;4.50;99.90;;;;;;5011701;28;20080;-73
2021/04/24 01:21:41;;;;;;;7.50;5.85;;;4.70;99.90;;;;;;5010104;28;20025;-73
2021/04/24 01:24:10;;;;;;;10.48;6.13;;;4.50;99.90;;;;;;5011360;28;20500;-73
2021/04/24 01:26:36;;;;;;;12.95;5.93;;;4.50;99.90;;;;;;5011736;28;20037;-73
2021/04/24 01:29:04;;;;;;;9.05;6.00;;;4.50;99.90;;;;;;5011722;28;20021;-73
2021/04/24 01:31:34;;;;;;;10.70;5.93;;;4.60;99.90;;;;;;5011513;28;20022;-72
2021/04/24 01:34:00;;;;;;;9.82;6.38;;;4.60;99.90;;;;;;5011570;28;20062;-73
2021/04/24 01:36:26;;;;;;;10.15;6.38;;;4.10;99.90;;;;;;5002076;28;20062;-73
2021/04/24 01:38:52;;;;;;;8.27;6.07;;;4.10;99.90;;;;;;5005334;28;20034;-74
2021/04/24 01:41:18;;;;;;;7.57;5.82;;;4.20;99.90;;;;;;5001676;28;20060;-73
2021/04/24 01:43:52;;;;;;;10.23;6.35;;;3.90;99.90;;;;;;4998337;28;20073;-73
2021/04/24 01:46:18;;;;;;;9.68;6.45;;;3.90;99.90;;;;;;5011584;28;20396;-74
2021/04/24 01:48:44;;;;;;;9.48;6.43;;;3.90;99.90;;;;;;5011706;28;20022;-73
2021/04/24 01:51:11;;;;;;;8.57;6.28;;;3.80;99.90;;;;;;5013222;28;20510;-75
2021/04/24 01:53:37;;;;;;;10.50;6.40;;;3.90;99.90;;;;;;5001857;28;20022;-72
2021/04/24 01:56:03;;;;;;;9.55;5.90;;;3.70;99.90;;;;;;5015272;28;20165;-73
2021/04/24 01:58:29;;;;;;;9.13;6.10;;;3.80;99.90;;;;;;5013838;28;20052;-74
2021/04/24 02:01:01;;;;;;;11.45;6.65;;;3.80;99.90;;;;;;5015193;28;20469;-75
2021/04/24 02:03:28;;;;;;;8.82;6.53;;;3.90;99.90;;;;;;5014999;28;20041;-75
2021/04/24 02:05:54;;;;;;;10.48;6.35;;;3.90;99.90;;;;;;5014997;28;20048;-75
2021/04/24 02:08:25;;;;;;;11.05;7.32;;;4.00;99.90;;;;;;5014984;28;20500;-75
2021/04/24 02:10:54;;;;;;;8.25;6.57;;;4.20;99.90;;;;;;5014909;28;20505;-75
2021/04/24 02:13:25;;;;;;;11.18;6.50;;;4.10;99.90;;;;;;5000548;28;20037;-73
2021/04/24 02:15:50;;;;;;;7.70;6.13;;;4.10;99.90;;;;;;5014714;28;20097;-74
2021/04/24 02:18:16;;;;;;;11.82;7.05;;;4.20;99.90;;;;;;5014857;28;20034;-74
2021/04/24 02:20:43;;;;;;;9.90;6.35;;;4.10;99.90;;;;;;5013560;28;20038;-75
2021/04/24 02:23:12;;;;;;;9.60;6.68;;;4.20;99.90;;;;;;5007839;28;20053;-71
2021/04/24 02:25:38;;;;;;;11.20;7.35;;;4.10;99.90;;;;;;5008163;28;20030;-71
2021/04/24 02:28:04;;;;;;;11.10;7.07;;;4.10;99.90;;;;;;4993929;28;20027;-70
2021/04/24 02:30:29;;;;;;;11.18;6.30;;;3.90;99.90;;;;;;5008748;28;20489;-71
2021/04/24 02:32:55;;;;;;;10.23;6.75;;;3.80;99.90;;;;;;5014516;28;20034;-72
2021/04/24 02:35:50;;;;;;;11.38;7.05;;;3.80;99.90;;;;;;5014206;28;20271;-72
2021/04/24 02:38:18;;;;;;;10.77;6.30;;;3.80;99.90;;;;;;5014511;28;20048;-70
2021/04/24 02:40:44;;;;;;;10.73;7.03;;;3.50;99.90;;;;;;5012986;28;20032;-70
2021/04/24 02:43:10;;;;;;;9.07;6.40;;;3.50;99.90;;;;;;5003388;28;20388;-74
2021/04/24 02:45:35;;;;;;;11.90;7.15;;;3.30;99.90;;;;;;5006398;28;20069;-71
2021/04/24 02:48:01;;;;;;;9.07;6.55;;;3.10;99.90;;;;;;5005264;28;20507;-74
2021/04/24 02:50:27;;;;;;;10.95;7.25;;;3.00;99.90;;;;;;4999792;28;20468;-73
2021/04/24 02:52:53;;;;;;;9.73;6.97;;;3.00;99.90;;;;;;5014104;28;20033;-72
2021/04/24 02:55:19;;;;;;;10.20;6.57;;;2.90;99.90;;;;;;5012900;28;20026;-71
2021/04/24 02:57:45;;;;;;;12.10;6.85;;;2.90;99.90;;;;;;5012843;28;20555;-72
2021/04/24 03:00:13;;;;;;;10.35;7.20;;;2.80;99.90;;;;;;5014067;28;20045;-70
2021/04/24 03:02:39;;;;;;;12.90;7.20;;;2.90;99.90;;;;;;5012678;28;20064;-71
2021/04/24 03:05:10;;;;;;;11.35;6.80;;;2.80;99.90;;;;;;5013704;28;20100;-72
2021/04/24 03:07:36;;;;;;;9.32;6.78;;;2.60;99.90;;;;;;5013753;28;20069;-72
2021/04/24 03:10:04;;;;;;;9.23;6.88;;;2.40;99.90;;;;;;5013845;28;20041;-74
2021/04/24 03:12:29;;;;;;;14.85;6.90;;;2.50;99.90;;;;;;4999870;28;20065;-75
2021/04/24 03:14:54;;;;;;;12.70;7.20;;;2.70;99.90;;;;;;5013053;28;20127;-74
2021/04/24 03:17:20;;;;;;;10.55;7.00;;;2.90;99.90;;;;;;5014093;28;20026;-74
2021/04/24 03:19:46;;;;;;;11.57;7.13;;;3.00;99.90;;;;;;5013661;28;20022;-75
2021/04/24 03:22:11;;;;;;;15.20;7.82;;;2.90;99.90;;;;;;5001206;28;20034;-73
2021/04/24 03:24:37;;;;;;;13.77;7.82;;;3.00;99.90;;;;;;5012622;28;20034;-73
2021/04/24 03:27:02;;;;;;;11.32;7.40;;;3.10;99.90;;;;;;5013498;28;20101;-73
2021/04/24 03:29:28;;;;;;;14.18;8.57;;;3.00;99.90;;;;;;5007458;28;20041;-72
2021/04/24 03:31:54;;;;;;;13.20;7.60;;;3.20;99.90;;;;;;5005063;28;20103;-74
2021/04/24 03:34:19;;;;;;;13.02;7.72;;;3.10;99.90;;;;;;5013176;28;20025;-72
2021/04/24 03:36:45;;;;;;;10.13;8.02;;;2.90;99.90;;;;;;5012075;28;20030;-74
2021/04/24 03:39:10;;;;;;;14.82;8.13;;;2.90;99.90;;;;;;5012011;28;20087;-73
2021/04/24 03:41:36;;;;;;;12.68;7.65;;;2.70;99.90;;;;;;5011703;28;20121;-74
2021/04/24 03:44:01;;;;;;;13.15;7.30;;;2.50;99.90;;;;;;5013001;28;20034;-74
2021/04/24 03:46:27;;;;;;;10.13;7.30;;;2.60;99.90;;;;;;5001408;28;20018;-73
2021/04/24 03:48:52;;;;;;;12.40;7.75;;;2.60;99.90;;;;;;5005816;28;20374;-73
2021/04/24 03:51:18;;;;;;;12.35;7.82;;;2.60;99.90;;;;;;5003819;28;20527;-73
2021/04/24 03:53:43;;;;;;;10.98;7.93;;;2.70;99.90;;;;;;4998429;28;20026;-73
2021/04/24 03:56:09;;;;;;;16.15;8.23;;;2.80;99.90;;;;;;5012957;28;20048;-74
2021/04/24 03:58:35;;;;;;;14.60;8.48;;;2.80;99.90;;;;;;5012832;28;20030;-74
2021/04/24 04:01:00;;;;;;;18.38;11.13;;;2.70;99.90;;;;;;5011646;28;20025;-73
2021/04/24 04:03:26;;;;;;;12.15;7.95;;;2.60;99.90;;;;;;5012608;28;20473;-72
2021/04/24 04:05:51;;;;;;;10.95;8.40;;;2.60;99.90;;;;;;5013019;28;20033;-74
2021/04/24 04:08:17;;;;;;;15.05;8.50;;;2.40;99.90;;;;;;5011528;28;20026;-74
2021/04/24 04:10:44;;;;;;;12.38;8.07;;;1.90;99.90;;;;;;5011528;28;20033;-73
2021/04/24 04:13:12;;;;;;;11.70;7.78;;;1.40;99.90;;;;;;5011161;28;20391;-74
2021/04/24 04:15:38;;;;;;;13.52;8.00;;;1.40;99.90;;;;;;5011289;28;20030;-74
2021/04/24 04:18:14;;;;;;;14.52;7.57;;;1.20;99.90;;;;;;5012548;28;20030;-73
2021/04/24 04:20:49;;;;;;;10.77;7.78;;;1.30;99.90;;;;;;5012583;28;20460;-72
2021/04/24 04:23:14;;;;;;;10.63;7.72;;;1.50;99.90;;;;;;5004204;28;20022;-71
2021/04/24 04:25:41;;;;;;;12.85;7.82;;;1.50;99.90;;;;;;5007248;28;20080;-72
2021/04/24 04:28:07;;;;;;;11.85;8.18;;;1.70;99.90;;;;;;5012271;28;20105;-71
2021/04/24 04:30:33;;;;;;;10.88;8.23;;;1.90;99.90;;;;;;5012214;28;20073;-71
2021/04/24 04:33:00;;;;;;;10.20;7.88;;;1.80;99.90;;;;;;5011876;28;20022;-71
2021/04/24 04:35:26;;;;;;;12.02;8.30;;;1.90;99.90;;;;;;5012124;28;20046;-73
2021/04/24 04:37:52;;;;;;;11.90;8.25;;;2.10;99.90;;;;;;5012350;28;20059;-73
2021/04/24 04:40:17;;;;;;;13.07;7.88;;;2.00;99.90;;;;;;4999184;28;20030;-73
2021/04/24 04:42:44;;;;;;;11.98;8.27;;;2.10;99.90;;;;;;5012030;28;20124;-73
2021/04/24 04:45:11;;;;;;;13.88;8.13;;;2.20;99.90;;;;;;5011945;28;20112;-73
2021/04/24 04:47:37;;;;;;;13.52;8.32;;;2.20;99.90;;;;;;5011167;28;20472;-72
2021/04/24 04:50:05;;;;;;;13.43;8.00;;;2.20;99.90;;;;;;4998865;28;20065;-71
2021/04/24 04:52:31;;;;;;;11.80;7.97;;;2.10;99.90;;;;;;5003592;28;20477;-72
2021/04/24 04:54:56;;;;;;;13.52;8.60;;;2.10;99.90;;;;;;5004008;28;20021;-73
2021/04/24 04:57:22;;;;;;;12.00;8.25;;;2.10;99.90;;;;;;4999663;28;20503;-75
2021/04/24 04:59:47;;;;;;;14.02;9.25;;;2.30;99.90;;;;;;4997408;28;20019;-73
2021/04/24 05:02:13;;;;;;;12.95;8.55;;;2.40;99.90;;;;;;5011894;28;20091;-73
2021/04/24 05:04:38;;;;;;;12.20;7.97;;;2.40;99.90;;;;;;5010311;28;20029;-73
2021/04/24 05:07:04;;;;;;;11.88;8.07;;;2.40;99.90;;;;;;5011864;28;20057;-73
2021/04/24 05:09:29;;;;;;;11.18;7.90;;;2.40;99.90;;;;;;5010669;28;20026;-73
2021/04/24 05:11:56;;;;;;;11.00;8.15;;;2.50;99.90;;;;;;5010640;28;20050;-73
2021/04/24 05:14:21;;;;;;;11.18;8.43;;;2.70;99.90;;;;;;5010423;28;20395;-73
2021/04/24 05:16:47;;;;;;;13.48;8.02;;;2.90;99.90;;;;;;5003635;28;20034;-74
2021/04/24 05:19:13;;;;;;;14.35;8.75;;;3.20;99.90;;;;;;5007145;28;20079;-74
2021/04/24 05:21:38;;;;;;;11.27;8.43;;;3.40;99.90;;;;;;5010602;28;20034;-74
2021/04/24 05:24:05;;;;;;;10.82;8.13;;;3.40;99.90;;;;;;5010344;28;20040;-74
2021/04/24 05:26:32;;;;;;;11.77;8.10;;;3.50;99.90;;;;;;5013121;28;20018;-73
2021/04/24 05:28:57;;;;;;;12.30;8.55;;;3.50;99.90;;;;;;5015663;28;20100;-74
2021/04/24 05:31:24;;;;;;;15.13;9.10;;;3.50;99.90;;;;;;5015579;28;20058;-74
2021/04/24 05:33:50;;;;;;;11.98;7.78;;;3.50;99.90;;;;;;5001198;28;20097;-73
2021/04/24 05:36:16;;;;;;;15.02;9.60;;;3.40;99.90;;;;;;5015518;28;20480;-75
2021/04/24 05:38:42;;;;;;;12.95;8.18;;;3.50;99.90;;;;;;5014308;28;20028;-73
2021/04/24 05:41:13;;;;;;;15.77;9.02;;;3.60;99.90;;;;;;5014067;28;20112;-73
2021/04/24 05:43:39;;;;;;;12.32;8.93;;;3.50;99.90;;;;;;5001867;28;20366;-74
2021/04/24 05:46:04;;;;;;;15.18;8.55;;;3.50;99.90;;;;;;5015396;28;20118;-74
2021/04/24 05:48:30;;;;;;;13.10;8.57;;;3.60;99.90;;;;;;5015258;28;20113;-74
2021/04/24 05:50:57;;;;;;;13.63;8.10;;;3.70;99.90;;;;;;5015237;28;20093;-73
2021/04/24 05:53:23;;;;;;;16.33;9.10;;;3.80;99.90;;;;;;5002213;28;20034;-74
2021/04/24 05:55:49;;;;;;;12.73;8.50;;;4.00;99.90;;;;;;5006711;28;20061;-73
2021/04/24 05:58:15;;;;;;;14.35;8.30;;;4.10;99.90;;;;;;5009208;28;20026;-74
2021/04/24 06:00:40;;;;;;;16.20;8.75;;;4.30;99.90;;;;;;5013847;28;20026;-74
2021/04/24 06:03:06;;;;;;;13.38;8.63;;;4.50;99.90;;;;;;5001803;28;20027;-74
2021/04/24 06:05:31;;;;;;;14.20;8.10;;;4.60;99.90;;;;;;5013701;28;20026;-75
2021/04/24 06:07:57;;;;;;;14.57;8.70;;;4.60;99.90;;;;;;5014993;28;20475;-75
2021/04/24 06:10:22;;;;;;;11.98;8.35;;;4.60;99.90;;;;;;5013650;28;20088;-68
2021/04/24 06:12:48;;;;;;;12.50;7.60;;;4.70;99.90;;;;;;5013291;28;20041;-68
2021/04/24 06:15:16;;;;;;;14.18;8.43;;;4.90;99.90;;;;;;5014890;28;20033;-68
2021/04/24 06:17:42;;;;;;;11.75;8.25;;;4.80;99.90;;;;;;5014886;28;20419;-72
2021/04/24 06:20:09;;;;;;;12.02;7.82;;;4.90;99.90;;;;;;5013451;28;20022;-72
2021/04/24 06:22:35;;;;;;;9.98;8.10;;;5.00;99.90;;;;;;5014369;28;20369;-73
2021/04/24 06:25:01;;;;;;;9.95;7.40;;;5.00;99.90;;;;;;5005478;28;20025;-72
2021/04/24 06:27:26;;;;;;;11.60;7.70;;;5.10;99.90;;;;;;5010545;28;20477;-72
2021/04/24 06:29:52;;;;;;;11.85;8.07;;;5.10;99.90;;;;;;5013217;28;20037;-72
2021/04/24 06:32:18;;;;;;;11.27;8.10;;;5.30;99.90;;;;;;5013209;28;20392;-73
2021/04/24 06:34:43;;;;;;;12.35;8.40;;;5.40;99.90;;;;;;5012877;28;20026;-68
2021/04/24 06:37:10;;;;;;;13.38;8.18;;;5.40;99.90;;;;;;5014188;28;20033;-68
2021/04/24 06:39:35;;;;;;;13.65;8.10;;;5.40;99.90;;;;;;5014408;28;20057;-73
2021/04/24 06:42:01;;;;;;;13.98;8.02;;;5.60;99.90;;;;;;5014025;28;20526;-73
2021/04/24 06:44:27;;;;;;;11.93;7.57;;;5.70;99.90;;;;;;5012645;28;20026;-73
2021/04/24 06:46:52;;;;;;;12.40;7.72;;;5.80;99.90;;;;;;5001087;28;20029;-73
2021/04/24 06:49:18;;;;;;;13.35;8.20;;;5.90;99.90;;;;;;5014139;28;20110;-74
2021/04/24 06:51:43;;;;;;;15.15;8.63;;;6.00;99.90;;;;;;5013893;28;20388;-73
2021/04/24 06:54:09;;;;;;;10.25;8.15;;;6.10;99.90;;;;;;5013854;28;20539;-73
2021/04/24 06:56:35;;;;;;;11.75;7.93;;;6.20;99.90;;;;;;5013972;28;20372;-73
2021/04/24 06:59:00;;;;;;;11.15;7.88;;;6.30;99.90;;;;;;5013848;28;20025;-72
2021/04/24 07:01:26;;;;;;;10.95;7.88;;;6.30;99.90;;;;;;5013816;28;20026;-72
2021/04/24 07:03:52;;;;;;;12.73;7.97;;;6.60;99.90;;;;;;5013709;28;20034;-72
2021/04/24 07:06:17;;;;;;;14.40;8.95;;;6.60;99.90;;;;;;5012670;28;20502;-73
2021/04/24 07:08:43;;;;;;;9.80;7.80;;;6.70;99.90;;;;;;5005070;28;20033;-72
2021/04/24 07:11:09;;;;;;;11.90;8.60;;;6.70;99.90;;;;;;5007469;28;20022;-74
2021/04/24 07:13:37;;;;;;;13.98;11.55;;;6.80;99.90;;;;;;5012305;28;20025;-73
2021/04/24 07:16:05;;;;;;;19.90;10.63;;;7.10;99.90;;;;;;5013627;28;20021;-74
2021/04/24 07:18:31;;;;;;;13.70;7.60;;;7.30;99.90;;;;;;5012413;28;20029;-73
2021/04/24 07:20:57;;;;;;;13.55;8.20;;;7.20;99.90;;;;;;5013595;28;20034;-74
2021/04/24 07:23:22;;;;;;;15.32;8.32;;;7.30;99.90;;;;;;5013460;28;20038;-73
2021/04/24 07:25:48;;;;;;;14.68;8.95;;;7.50;99.90;;;;;;5013219;28;20503;-74
2021/04/24 07:28:15;;;;;;;15.18;8.65;;;7.60;99.90;;;;;;5013439;28;20026;-72
2021/04/24 07:30:41;;;;;;;15.70;9.65;;;7.70;99.90;;;;;;5013308;28;20018;-72
2021/04/24 07:33:07;;;;;;;11.23;8.88;;;7.90;99.90;;;;;;5013082;28;20036;-72
2021/04/24 07:35:33;;;;;;;11.40;8.50;;;8.00;99.90;;;;;;4999797;28;20097;-72
2021/04/24 07:37:58;;;;;;;12.43;8.15;;;8.10;99.90;;;;;;5013223;28;20051;-72
2021/04/24 07:40:24;;;;;;;11.48;8.85;;;8.20;99.90;;;;;;5013014;28;20034;-73
2021/04/24 07:42:49;;;;;;;12.00;8.52;;;8.10;99.90;;;;;;5012820;28;20049;-72
2021/04/24 07:45:15;;;;;;;17.90;8.40;;;8.30;99.90;;;;;;4999478;28;20030;-72
2021/04/24 07:47:42;;;;;;;11.75;8.00;;;8.50;99.90;;;;;;5011157;28;20018;-72
2021/04/24 07:50:09;;;;;;;11.52;8.40;;;8.70;99.90;;;;;;5012703;28;20018;-72
2021/04/24 07:52:35;;;;;;;16.80;9.70;;;8.80;99.90;;;;;;5012908;28;20034;-73
2021/04/24 07:55:01;;;;;;;11.95;8.18;;;8.70;99.90;;;;;;5012299;28;20384;-74
2021/04/24 07:57:28;;;;;;;12.00;8.27;;;8.80;99.90;;;;;;5011183;28;20018;-74
2021/04/24 07:59:54;;;;;;;12.68;8.75;;;9.00;99.90;;;;;;5012828;28;20365;-74
2021/04/24 08:02:19;;;;;;;13.52;9.60;;;9.10;99.90;;;;;;5011355;28;20033;-73
2021/04/24 08:04:45;;;;;;;12.88;7.10;;;9.20;99.90;;;;;;5015097;28;20041;-73
2021/04/24 08:07:10;;;;;;;10.77;7.07;;;9.40;99.90;;;;;;5021996;28;20026;-75
2021/04/24 08:09:36;;;;;;;12.40;7.25;;;9.50;99.90;;;;;;5011312;28;20018;-74
2021/04/24 08:12:03;;;;;;;14.55;7.45;;;9.60;99.90;;;;;;5012400;28;20103;-74
2021/04/24 08:14:29;;;;;;;11.57;7.18;;;9.70;99.90;;;;;;5011013;28;20026;-73
2021/04/24 08:16:54;;;;;;;12.60;6.80;;;9.80;99.90;;;;;;5012485;28;20053;-74
2021/04/24 08:19:21;;;;;;;8.30;5.75;;;9.80;99.90;;;;;;5012432;28;20030;-73
2021/04/24 08:21:46;;;;;;;10.50;6.00;;;9.80;99.90;;;;;;5011146;28;20053;-73
2021/04/24 08:24:12;;;;;;;9.95;6.18;;;10.10;99.90;;;;;;5011004;28;20495;-74
2021/04/24 08:26:38;;;;;;;10.18;5.78;;;10.20;99.90;;;;;;5012415;28;20033;-73
2021/04/24 08:29:06;;;;;;;8.77;6.07;;;10.30;99.90;;;;;;5012424;28;20104;-73
2021/04/24 08:31:32;;;;;;;11.32;5.70;;;10.30;99.90;;;;;;5010822;28;20032;-73
2021/04/24 08:33:58;;;;;;;8.30;5.40;;;10.50;99.90;;;;;;5011982;28;20026;-74
2021/04/24 08:36:23;;;;;;;8.45;5.85;;;10.70;99.90;;;;;;5010990;28;20484;-73
2021/04/24 08:38:49;;;;;;;9.05;5.68;;;10.70;99.90;;;;;;5012287;28;20034;-73
2021/04/24 08:41:15;;;;;;;9.45;5.50;;;10.80;99.90;;;;;;5012231;28;20109;-74
2021/04/24 08:43:41;;;;;;;8.82;5.80;;;10.70;99.90;;;;;;5012197;28;20079;-73
2021/04/24 08:46:07;;;;;;;9.63;5.45;;;10.60;99.90;;;;;;5012244;28;20046;-73
2021/04/24 08:48:33;;;;;;;10.40;6.22;;;10.80;99.90;;;;;;5012499;28;20591;-73
2021/04/24 08:51:00;;;;;;;11.23;6.40;;;11.00;99.90;;;;;;5012329;28;20026;-73
2021/04/24 08:53:26;;;;;;;12.10;6.53;;;11.10;99.90;;;;;;5010739;28;20400;-74
2021/04/24 08:55:52;;;;;;;10.23;6.88;;;11.10;99.90;;;;;;5012196;28;20038;-73
2021/04/24 08:58:17;;;;;;;12.05;5.93;;;11.10;99.90;;;;;;5012538;28;20030;-73
2021/04/24 09:00:46;;;;;;;10.02;6.10;;;11.30;99.90;;;;;;5011096;28;20066;-73
2021/04/24 09:03:16;;;;;;;11.85;7.47;;;11.20;99.90;;;;;;5011266;28;20511;-73
2021/04/24 09:05:42;;;;;;;12.60;7.68;;;11.30;99.90;;;;;;5005345;28;20068;-73
2021/04/24 09:08:09;;;;;;;12.00;8.07;;;11.50;99.90;;;;;;5012877;28;20427;-73
2021/04/24 09:10:42;;;;;;;14.35;7.55;;;11.50;99.90;;;;;;5011483;28;20053;-74
2021/04/24 09:13:09;;;;;;;11.07;7.18;;;11.40;99.90;;;;;;5010449;28;20073;-73
2021/04/24 09:15:34;;;;;;;11.98;7.53;;;11.60;99.90;;;;;;5010707;28;20033;-74
2021/04/24 09:18:01;;;;;;;12.43;7.18;;;11.80;99.90;;;;;;4998953;28;20022;-73
2021/04/24 09:20:30;;;;;;;11.88;7.50;;;12.00;99.90;;;;;;5012375;28;20057;-73
2021/04/24 09:22:59;;;;;;;16.50;8.93;;;12.20;99.90;;;;;;5006541;28;20033;-73
2021/04/24 09:26:01;;;;;;;10.82;7.53;;;11.90;99.90;;;;;;5004431;28;20017;-73
2021/04/24 09:28:31;;;;;;;14.35;7.43;;;11.90;99.90;;;;;;4984103;28;20113;-73
2021/04/24 09:30:58;;;;;;;13.75;8.40;;;12.10;99.90;;;;;;5011356;28;20476;-74
2021/04/24 09:33:32;;;;;;;11.48;7.57;;;12.20;99.90;;;;;;5019253;28;20030;-74
2021/04/24 09:35:57;;;;;;;11.63;7.85;;;12.30;99.90;;;;;;4998728;28;20084;-73
2021/04/24 09:38:24;;;;;;;11.07;7.80;;;12.50;99.90;;;;;;4998535;28;20030;-73
2021/04/24 09:41:06;;;;;;;10.90;7.63;;;12.50;99.90;;;;;;5010933;28;20045;-73
2021/04/24 09:43:57;;;;;;;12.30;7.75;;;12.40;99.90;;;;;;5008965;28;20079;-74
2021/04/24 09:46:30;;;;;;;11.75;7.45;;;12.50;99.90;;;;;;5003223;28;20030;-73
2021/04/24 09:49:22;;;;;;;13.18;7.82;;;12.50;99.90;;;;;;4998612;28;20018;-74
2021/04/24 09:52:11;;;;;;;11.25;7.35;;;12.50;99.90;;;;;;5011743;28;20426;-74
2021/04/24 09:54:46;;;;;;;14.20;7.72;;;12.50;99.90;;;;;;5010050;28;20037;-75
2021/04/24 09:57:20;;;;;;;11.25;7.20;;;12.30;99.90;;;;;;5011374;28;20026;-73
2021/04/24 10:00:07;;;;;;;12.10;6.82;;;12.60;99.90;;;;;;5011547;28;20484;-75
2021/04/24 10:02:35;;;;;;;11.98;7.47;;;12.70;99.90;;;;;;5009070;28;20487;-75
2021/04/24 10:05:10;;;;;;;11.80;7.63;;;12.40;99.90;;;;;;5015879;28;20025;-75
2021/04/24 10:07:40;;;;;;;14.18;7.32;;;12.70;99.90;;;;;;5004174;28;20105;-75
2021/04/24 10:10:08;;;;;;;13.23;7.97;;;12.80;99.90;;;;;;5007684;28;20052;-74
2021/04/24 10:12:34;;;;;;;14.00;7.90;;;12.70;99.90;;;;;;5009087;28;20105;-72
2021/04/24 10:14:59;;;;;;;12.98;7.72;;;12.60;99.90;;;;;;5014171;28;20105;-75
2021/04/24 10:17:26;;;;;;;12.57;7.53;;;12.50;99.90;;;;;;5014636;28;20025;-73
2021/04/24 10:19:53;;;;;;;11.95;7.38;;;12.70;99.90;;;;;;5009217;28;20030;-73
2021/04/24 10:22:22;;;;;;;14.90;7.57;;;12.80;99.90;;;;;;5012649;28;20025;-74
2021/04/24 10:24:49;;;;;;;11.23;7.20;;;12.80;99.90;;;;;;5013994;28;20096;-74
2021/04/24 10:27:16;;;;;;;9.98;6.55;;;13.00;99.90;;;;;;5013128;28;20017;-73
2021/04/24 10:29:45;;;;;;;12.07;6.68;;;13.10;99.90;;;;;;5013416;28;20022;-74
2021/04/24 10:32:11;;;;;;;12.27;7.80;;;13.30;99.90;;;;;;5013217;28;20483;-73
2021/04/24 10:34:38;;;;;;;10.68;7.20;;;13.40;99.90;;;;;;5013085;28;20033;-74
2021/04/24 10:37:03;;;;;;;14.50;7.38;;;13.40;99.90;;;;;;5012965;28;20030;-74
2021/04/24 10:39:34;;;;;;;13.23;7.57;;;13.30;99.90;;;;;;5001721;28;20072;-74
2021/04/24 10:42:10;;;;;;;11.63;6.97;;;13.30;99.90;;;;;;5014387;28;20111;-73
2021/04/24 10:44:53;;;;;;;10.45;7.10;;;13.30;99.90;;;;;;5014056;28;20022;-73
2021/04/24 10:47:37;;;;;;;11.60;6.78;;;13.30;99.90;;;;;;5014284;28;20021;-73
2021/04/24 10:50:04;;;;;;;10.90;7.53;;;13.70;99.90;;;;;;5013042;28;20113;-73
2021/04/24 10:52:30;;;;;;;11.00;6.72;;;14.00;99.90;;;;;;5013110;28;20022;-74
2021/04/24 10:55:16;;;;;;;10.13;6.40;;;14.10;99.90;;;;;;5013263;28;20034;-73
2021/04/24 10:57:51;;;;;;;12.88;7.18;;;14.00;99.80;;;;;;5014804;28;20503;-74
2021/04/24 11:00:33;;;;;;;10.07;7.07;;;13.90;99.90;;;;;;5014705;28;20156;-74
2021/04/24 11:03:00;;;;;;;12.85;6.80;;;14.30;99.90;;;;;;5013162;28;20021;-75
2021/04/24 11:05:41;;;;;;;13.40;7.25;;;14.10;99.90;;;;;;5021722;28;20498;-74
2021/04/24 11:08:19;;;;;;;13.52;7.75;;;14.10;99.90;;;;;;5016619;28;20030;-73
2021/04/24 11:11:05;;;;;;;12.85;7.30;;;14.10;99.00;;;;;;5012587;28;20022;-73
2021/04/24 11:14:03;;;;;;;11.88;7.25;;;14.00;98.70;;;;;;5002243;28;20050;-72
2021/04/24 11:16:32;;;;;;;12.45;7.15;;;14.40;99.90;;;;;;5013268;28;20042;-74
2021/04/24 11:18:58;;;;;;;11.25;7.00;;;14.80;99.90;;;;;;5014126;28;20112;-74
2021/04/24 11:21:29;;;;;;;9.35;6.45;;;14.80;98.90;;;;;;5013663;28;20026;-74
2021/04/24 11:23:59;;;;;;;12.07;7.30;;;14.50;99.80;;;;;;5012527;28;20431;-75
2021/04/24 11:26:33;;;;;;;11.02;7.32;;;14.60;98.60;;;;;;5013643;28;20028;-74
2021/04/24 11:29:00;;;;;;;11.38;7.00;;;14.70;97.40;;;;;;5013622;28;20025;-73
2021/04/24 11:31:44;;;;;;;10.73;7.55;;;14.90;97.50;;;;;;5013510;28;20502;-73
2021/04/24 11:34:42;;;;;;;10.57;6.97;;;15.30;97.70;;;;;;5013154;28;20547;-73
2021/04/24 11:37:18;;;;;;;11.70;7.15;;;15.60;95.90;;;;;;5012998;28;20042;-73
2021/04/24 11:40:25;;;;;;;11.18;7.20;;;15.50;97.80;;;;;;5012520;28;20384;-73
2021/04/24 11:43:02;;;;;;;;;;;15.50;95.80;;;;;;5003580;28;20361;-75
2021/04/24 11:45:45;;;;;;;10.23;6.85;;;15.40;95.10;;;;;;5013133;28;19909;-75
2021/04/24 11:48:11;;;;;;;10.30;7.10;;;15.60;94.70;;;;;;5013234;28;20034;-74
2021/04/24 11:50:39;;;;;;;14.93;7.97;;;15.90;95.00;;;;;;5011776;28;20056;-74
2021/04/24 11:53:05;;;;;;;12.35;8.43;;;15.60;95.00;;;;;;5013036;28;20018;-73
2021/04/24 11:55:30;;;;;;;10.13;6.88;;;15.20;94.80;;;;;;5013179;28;20109;-74
2021/04/24 11:58:22;;;;;;;11.52;7.18;;;15.70;95.60;;;;;;5014171;28;20124;-74
2021/04/24 12:00:47;;;;;;;11.75;8.32;;;15.80;96.40;;;;;;5001764;28;20053;-73
2021/04/24 12:03:13;;;;;;;12.05;7.75;;;15.70;94.70;;;;;;5001893;28;20540;-73
2021/04/24 12:05:45;;;;;;;12.70;7.32;;;15.80;94.90;;;;;;5014530;28;20033;-73
2021/04/24 12:08:21;;;;;;;11.02;7.57;;;16.00;94.50;;;;;;5012973;28;20060;-74
2021/04/24 12:10:46;;;;;;;12.18;7.70;;;16.20;94.40;;;;;;5015241;28;20026;-74
2021/04/24 12:13:12;;;;;;;9.43;7.40;;;16.40;93.40;;;;;;5016600;28;20040;-73
2021/04/24 12:15:44;;;;;;;16.65;7.68;;;16.30;92.50;;;;;;5013860;28;20022;-73
2021/04/24 12:18:10;;;;;;;12.27;7.20;;;16.50;92.40;;;;;;4994892;28;20026;-73
2021/04/24 12:20:44;;;;;;;13.55;7.60;;;16.90;92.60;;;;;;5007869;28;20040;-74
2021/04/24 12:23:14;;;;;;;13.65;7.55;;;16.50;90.50;;;;;;5000992;28;20026;-73
2021/04/24 12:25:42;;;;;;;11.63;7.03;;;16.90;91.30;;;;;;5013664;28;20049;-73
2021/04/24 12:28:09;;;;;;;11.32;6.88;;;17.30;90.40;;;;;;5006060;28;20539;-72
2021/04/24 12:30:37;;;;;;;12.27;7.70;;;17.30;91.00;;;;;;5006823;28;20044;-73
2021/04/24 12:33:03;;;;;;;18.20;7.82;;;17.50;87.50;;;;;;4999544;28;20029;-73
2021/04/24 12:35:34;;;;;;;10.10;7.07;;;17.70;86.60;;;;;;5012830;28;20033;-73
2021/04/24 12:38:12;;;;;;;13.15;7.25;;;17.60;86.00;;;;;;5012571;28;20022;-73
2021/04/24 12:40:43;;;;;;;12.68;6.80;;;18.20;86.30;;;;;;5012477;28;20096;-73
2021/04/24 12:43:14;;;;;;;13.52;7.20;;;18.40;81.60;;;;;;5011766;28;20018;-73
2021/04/24 12:45:44;;;;;;;13.65;7.57;;;18.20;82.10;;;;;;5010076;28;20045;-74
2021/04/24 12:48:19;;;;;;;11.05;6.50;;;19.20;82.40;;;;;;5011802;28;20045;-75
2021/04/24 12:50:47;;;;;;;12.80;6.85;;;19.30;82.00;;;;;;5011934;28;20108;-74